Time;durP1;ratioP1;P1;durP2;ratioP2;P2;SDS_P1;SDS_P2;PMS_P1;PMS_P2;Temp;Humidity;BMP_temperature;BMP_pressure;BME280_temperature;BME280_humidity;BME280_pressure;Samples;Min_cycle;Max_cycle;Signal;HPM_P1;HPM_P2
2024/01/21 00:02:26;;;;;;;30.37;12.37;;;;;;;;;;5103355;28;20251;-61
2024/01/21 00:04:53;;;;;;;30.43;11.93;;;;;;;;;;5102653;28;20210;-61
2024/01/21 00:07:20;;;;;;;32.40;11.53;;;;;;;;;;5110885;28;20289;-60
2024/01/21 00:09:47;;;;;;;39.47;14.40;;;;;;;;;;5105502;28;20290;-61
2024/01/21 00:12:14;;;;;;;28.73;8.93;;;;;;;;;;5106524;28;20210;-60
2024/01/21 00:14:41;;;;;;;34.80;12.17;;;;;;;;;;5103584;28;20241;-60
2024/01/21 00:17:08;;;;;;;39.73;14.27;;;;;;;;;;5116416;28;20205;-61
2024/01/21 00:19:39;;;;;;;38.23;13.07;;;;;;;;;;5111168;28;20228;-60
2024/01/21 00:22:06;;;;;;;35.00;12.60;;;;;;;;;;5091021;28;20639;-64
2024/01/21 00:24:33;;;;;;;50.20;12.87;;;;;;;;;;5107169;28;20210;-61
2024/01/21 00:27:04;;;;;;;40.63;13.90;;;;;;;;;;5088895;28;20556;-61
2024/01/21 00:29:31;;;;;;;36.70;13.20;;;;;;;;;;5088795;28;20598;-60
2024/01/21 00:31:58;;;;;;;29.37;11.50;;;;;;;;;;5097544;28;20224;-61
2024/01/21 00:34:25;;;;;;;37.53;13.80;;;;;;;;;;5109261;28;20209;-62
2024/01/21 00:36:58;;;;;;;43.47;13.87;;;;;;;;;;5075915;28;20212;-62
2024/01/21 00:39:25;;;;;;;40.40;12.80;;;;;;;;;;5074569;28;20224;-60
2024/01/21 00:41:52;;;;;;;36.53;13.90;;;;;;;;;;5089191;28;20218;-61
2024/01/21 00:44:19;;;;;;;48.90;12.53;;;;;;;;;;5089945;28;20394;-60
2024/01/21 00:46:47;;;;;;;42.73;14.00;;;;;;;;;;5094994;28;20329;-60
2024/01/21 00:49:14;;;;;;;37.27;12.87;;;;;;;;;;5089247;28;20218;-60
2024/01/21 00:51:41;;;;;;;31.43;11.27;;;;;;;;;;5088473;28;20289;-60
2024/01/21 00:54:09;;;;;;;38.87;13.70;;;;;;;;;;5088777;28;20206;-62
2024/01/21 00:56:37;;;;;;;42.03;12.43;;;;;;;;;;5088738;28;21052;-60
2024/01/21 00:59:04;;;;;;;34.17;12.80;;;;;;;;;;5089164;28;20277;-60
2024/01/21 01:01:31;;;;;;;44.87;13.90;;;;;;;;;;5077875;28;20225;-60
2024/01/21 01:03:58;;;;;;;28.27;11.33;;;;;;;;;;5095257;28;20239;-60
2024/01/21 01:06:25;;;;;;;39.80;13.57;;;;;;;;;;5085606;28;20210;-60
2024/01/21 01:08:52;;;;;;;41.93;14.00;;;;;;;;;;5086229;28;20242;-60
2024/01/21 01:11:21;;;;;;;37.33;13.63;;;;;;;;;;5091663;28;20628;-60
2024/01/21 01:13:48;;;;;;;37.90;12.63;;;;;;;;;;5088363;28;20645;-60
2024/01/21 01:16:15;;;;;;;35.93;13.17;;;;;;;;;;5087157;28;20214;-60
2024/01/21 01:18:42;;;;;;;33.13;12.87;;;;;;;;;;5085910;28;20214;-60
2024/01/21 01:21:11;;;;;;;41.10;14.67;;;;;;;;;;5080765;28;20580;-60
2024/01/21 01:23:38;;;;;;;41.53;13.70;;;;;;;;;;5093512;28;20240;-59
2024/01/21 01:26:05;;;;;;;36.23;13.47;;;;;;;;;;5090726;28;20671;-60
2024/01/21 01:28:33;;;;;;;40.07;12.87;;;;;;;;;;5091272;28;20878;-60
2024/01/21 01:31:00;;;;;;;32.80;11.13;;;;;;;;;;5088186;28;20222;-60
2024/01/21 01:33:27;;;;;;;32.50;12.47;;;;;;;;;;5090337;28;20203;-60
2024/01/21 01:35:54;;;;;;;33.90;12.67;;;;;;;;;;5088653;28;20204;-60
2024/01/21 01:38:21;;;;;;;35.60;11.83;;;;;;;;;;5092767;28;20681;-60
2024/01/21 01:40:48;;;;;;;34.77;12.07;;;;;;;;;;5087955;28;20203;-60
2024/01/21 01:43:15;;;;;;;41.50;12.80;;;;;;;;;;5094175;28;20202;-60
2024/01/21 01:45:44;;;;;;;33.67;13.30;;;;;;;;;;5088418;28;20208;-60
2024/01/21 01:48:11;;;;;;;32.10;12.23;;;;;;;;;;5088374;28;20209;-60
2024/01/21 01:50:38;;;;;;;37.70;12.80;;;;;;;;;;5090396;28;20257;-60
2024/01/21 01:53:05;;;;;;;30.20;11.50;;;;;;;;;;5086918;28;20708;-60
2024/01/21 01:55:33;;;;;;;33.37;11.77;;;;;;;;;;5087071;28;20216;-60
2024/01/21 01:58:00;;;;;;;40.40;12.30;;;;;;;;;;5088761;28;20321;-60
2024/01/21 02:00:28;;;;;;;41.57;12.80;;;;;;;;;;5090149;28;20213;-60
2024/01/21 02:02:56;;;;;;;31.67;11.10;;;;;;;;;;5084988;28;20273;-60
2024/01/21 02:05:23;;;;;;;27.97;12.03;;;;;;;;;;5086447;28;20827;-60
2024/01/21 02:07:50;;;;;;;30.33;11.27;;;;;;;;;;5086229;28;20209;-60
2024/01/21 02:10:17;;;;;;;29.07;9.90;;;;;;;;;;5096646;28;20246;-61
2024/01/21 02:12:45;;;;;;;31.13;11.67;;;;;;;;;;5085692;28;20263;-60
2024/01/21 02:15:12;;;;;;;30.77;11.53;;;;;;;;;;5086754;28;20638;-60
2024/01/21 02:17:39;;;;;;;33.67;10.67;;;;;;;;;;5086262;28;20229;-60
2024/01/21 02:20:09;;;;;;;29.87;11.23;;;;;;;;;;5089528;28;20212;-60
2024/01/21 02:22:39;;;;;;;28.10;11.63;;;;;;;;;;5084690;28;20657;-60
2024/01/21 02:25:07;;;;;;;41.60;12.00;;;;;;;;;;5076222;28;20231;-60
2024/01/21 02:27:34;;;;;;;35.03;11.53;;;;;;;;;;5086756;28;20220;-60
2024/01/21 02:30:02;;;;;;;26.90;12.00;;;;;;;;;;5095899;28;20225;-60
2024/01/21 02:32:29;;;;;;;37.73;11.37;;;;;;;;;;5107279;28;20216;-60
2024/01/21 02:34:56;;;;;;;32.50;10.90;;;;;;;;;;5087035;28;20217;-60
2024/01/21 02:37:23;;;;;;;28.93;11.60;;;;;;;;;;5084693;28;20203;-60
2024/01/21 02:39:50;;;;;;;30.30;10.30;;;;;;;;;;5087345;28;20643;-60
2024/01/21 02:42:18;;;;;;;33.43;12.57;;;;;;;;;;5086245;28;20896;-60
2024/01/21 02:44:45;;;;;;;28.40;10.83;;;;;;;;;;5086322;28;20210;-60
2024/01/21 02:47:12;;;;;;;34.10;11.40;;;;;;;;;;5086993;28;20675;-60
2024/01/21 02:49:39;;;;;;;32.43;11.67;;;;;;;;;;5089908;28;20265;-60
2024/01/21 02:52:06;;;;;;;32.93;10.93;;;;;;;;;;5097058;28;20198;-60
2024/01/21 02:54:33;;;;;;;31.10;10.97;;;;;;;;;;5086004;28;20213;-60
2024/01/21 02:57:00;;;;;;;34.03;11.57;;;;;;;;;;5081903;28;20206;-59
2024/01/21 02:59:29;;;;;;;29.13;10.70;;;;;;;;;;5086039;28;20227;-60
2024/01/21 03:01:57;;;;;;;31.40;10.83;;;;;;;;;;5083868;28;20453;-60
2024/01/21 03:04:24;;;;;;;32.40;11.47;;;;;;;;;;5097093;28;20222;-60
2024/01/21 03:06:51;;;;;;;38.17;11.57;;;;;;;;;;5075199;28;20213;-60
2024/01/21 03:09:18;;;;;;;29.33;10.20;;;;;;;;;;5087100;28;20258;-60
2024/01/21 03:11:45;;;;;;;29.00;10.87;;;;;;;;;;5082446;28;20226;-60
2024/01/21 03:14:13;;;;;;;32.63;11.67;;;;;;;;;;5093550;28;20882;-60
2024/01/21 03:16:41;;;;;;;35.83;11.20;;;;;;;;;;5106771;28;20218;-60
2024/01/21 03:19:08;;;;;;;32.13;10.77;;;;;;;;;;5089830;28;20320;-60
2024/01/21 03:21:35;;;;;;;31.13;11.03;;;;;;;;;;5086934;28;20208;-59
2024/01/21 03:24:02;;;;;;;33.30;11.70;;;;;;;;;;5086595;28;20692;-59
2024/01/21 03:26:29;;;;;;;26.27;9.97;;;;;;;;;;5100245;28;20202;-60
2024/01/21 03:28:57;;;;;;;31.27;11.17;;;;;;;;;;5097898;28;20299;-59
2024/01/21 03:31:24;;;;;;;33.97;11.43;;;;;;;;;;5086620;28;20235;-60
2024/01/21 03:33:52;;;;;;;31.67;11.47;;;;;;;;;;5079114;28;20219;-60
2024/01/21 03:36:19;;;;;;;32.30;11.60;;;;;;;;;;5085985;28;20265;-60
2024/01/21 03:38:50;;;;;;;29.83;10.17;;;;;;;;;;5088251;28;20532;-60
2024/01/21 03:41:17;;;;;;;37.30;11.13;;;;;;;;;;5066041;28;20355;-60
2024/01/21 03:43:44;;;;;;;30.80;11.17;;;;;;;;;;5083744;28;20210;-60
2024/01/21 03:46:11;;;;;;;28.37;11.00;;;;;;;;;;5086712;28;20298;-60
2024/01/21 03:48:38;;;;;;;29.20;10.00;;;;;;;;;;5086222;28;20204;-60
2024/01/21 03:51:07;;;;;;;32.07;11.57;;;;;;;;;;5085999;28;20238;-59
2024/01/21 03:53:34;;;;;;;32.53;11.20;;;;;;;;;;5084838;28;20212;-60
2024/01/21 03:56:01;;;;;;;31.47;11.03;;;;;;;;;;5087994;28;20205;-59
2024/01/21 03:58:28;;;;;;;25.67;10.27;;;;;;;;;;5105773;28;20561;-60
2024/01/21 04:00:55;;;;;;;38.10;12.53;;;;;;;;;;5098260;28;20201;-60
2024/01/21 04:03:22;;;;;;;36.57;11.97;;;;;;;;;;5097748;28;20201;-60
2024/01/21 04:05:49;;;;;;;31.10;11.37;;;;;;;;;;5089630;28;20259;-59
2024/01/21 04:08:17;;;;;;;35.00;12.13;;;;;;;;;;5099171;28;20282;-60
2024/01/21 04:10:44;;;;;;;34.47;12.27;;;;;;;;;;5099990;28;20325;-60
2024/01/21 04:13:11;;;;;;;35.77;12.27;;;;;;;;;;5104130;28;20195;-60
2024/01/21 04:15:38;;;;;;;29.47;10.60;;;;;;;;;;5089812;28;20215;-60
2024/01/21 04:18:05;;;;;;;30.63;10.70;;;;;;;;;;5092380;28;20666;-59
2024/01/21 04:20:32;;;;;;;32.50;11.57;;;;;;;;;;5089685;28;21002;-59
2024/01/21 04:22:59;;;;;;;32.70;11.17;;;;;;;;;;5089790;28;20215;-60
2024/01/21 04:25:28;;;;;;;27.17;9.80;;;;;;;;;;5101261;28;20207;-60
2024/01/21 04:27:55;;;;;;;30.53;10.77;;;;;;;;;;5089326;28;20233;-60
2024/01/21 04:30:22;;;;;;;32.73;11.60;;;;;;;;;;5099282;28;20657;-59
2024/01/21 04:32:49;;;;;;;29.17;10.50;;;;;;;;;;5089176;28;20211;-60
2024/01/21 04:35:16;;;;;;;34.20;12.27;;;;;;;;;;5108258;28;20211;-59
2024/01/21 04:37:43;;;;;;;31.03;11.07;;;;;;;;;;5110158;28;20635;-59
2024/01/21 04:40:11;;;;;;;38.13;12.77;;;;;;;;;;5094641;28;20211;-59
2024/01/21 04:42:39;;;;;;;33.03;11.37;;;;;;;;;;5088719;28;20216;-59
2024/01/21 04:45:07;;;;;;;36.43;11.67;;;;;;;;;;5107175;28;20210;-60
2024/01/21 04:47:34;;;;;;;34.40;11.87;;;;;;;;;;5105094;28;20261;-59
2024/01/21 04:50:02;;;;;;;33.30;12.60;;;;;;;;;;5095525;28;20202;-61
2024/01/21 04:52:29;;;;;;;31.37;11.93;;;;;;;;;;5095566;28;20231;-59
2024/01/21 04:54:56;;;;;;;35.63;12.23;;;;;;;;;;5079639;28;20220;-58
2024/01/21 04:57:23;;;;;;;36.10;11.67;;;;;;;;;;5068536;28;20229;-58
2024/01/21 04:59:52;;;;;;;31.97;11.73;;;;;;;;;;5099134;28;20272;-59
2024/01/21 05:02:19;;;;;;;29.53;11.67;;;;;;;;;;5089967;28;20206;-59
2024/01/21 05:04:46;;;;;;;33.90;11.17;;;;;;;;;;5088076;28;20552;-62
2024/01/21 05:07:13;;;;;;;39.00;11.23;;;;;;;;;;5075103;28;20223;-59
2024/01/21 05:09:40;;;;;;;29.13;11.43;;;;;;;;;;5097547;28;20331;-59
2024/01/21 05:12:07;;;;;;;38.40;12.33;;;;;;;;;;5109044;28;20641;-59
2024/01/21 05:14:34;;;;;;;33.90;12.43;;;;;;;;;;5089276;28;20239;-59
2024/01/21 05:17:03;;;;;;;27.37;9.87;;;;;;;;;;5069014;28;20211;-59
2024/01/21 05:19:30;;;;;;;41.33;13.33;;;;;;;;;;5089455;28;20209;-59
2024/01/21 05:21:57;;;;;;;37.33;11.93;;;;;;;;;;5104320;28;20250;-59
2024/01/21 05:24:24;;;;;;;35.83;11.70;;;;;;;;;;5087719;28;20204;-59
2024/01/21 05:26:51;;;;;;;32.63;10.43;;;;;;;;;;5105267;28;20204;-59
2024/01/21 05:29:18;;;;;;;39.07;13.27;;;;;;;;;;5101594;28;20202;-59
2024/01/21 05:31:45;;;;;;;35.63;12.17;;;;;;;;;;5088079;28;20665;-59
2024/01/21 05:34:14;;;;;;;40.57;12.13;;;;;;;;;;5089820;28;20217;-59
2024/01/21 05:36:42;;;;;;;39.30;13.37;;;;;;;;;;5108607;28;20216;-59
2024/01/21 05:39:09;;;;;;;32.87;11.60;;;;;;;;;;5093253;28;20292;-59
2024/01/21 05:41:36;;;;;;;48.97;14.40;;;;;;;;;;5089752;28;20297;-59
2024/01/21 05:44:03;;;;;;;38.93;12.37;;;;;;;;;;5086893;28;20228;-59
2024/01/21 05:46:30;;;;;;;34.07;11.53;;;;;;;;;;5087319;28;20592;-59
2024/01/21 05:48:57;;;;;;;32.77;10.60;;;;;;;;;;5087599;28;20238;-60
2024/01/21 05:51:25;;;;;;;27.17;9.70;;;;;;;;;;5079889;28;20313;-61
2024/01/21 05:53:52;;;;;;;27.17;9.00;;;;;;;;;;5097081;28;20202;-59
2024/01/21 05:56:19;;;;;;;23.50;9.53;;;;;;;;;;5067512;28;20272;-59
2024/01/21 05:58:46;;;;;;;23.40;9.63;;;;;;;;;;5087005;28;20218;-59
2024/01/21 06:01:13;;;;;;;29.37;9.50;;;;;;;;;;5099040;28;20264;-59
2024/01/21 06:03:40;;;;;;;29.50;9.67;;;;;;;;;;5090007;28;20213;-59
2024/01/21 06:06:07;;;;;;;24.27;8.43;;;;;;;;;;5087759;28;20209;-59
2024/01/21 06:08:36;;;;;;;25.87;9.27;;;;;;;;;;5089100;28;20206;-59
2024/01/21 06:11:03;;;;;;;18.37;7.80;;;;;;;;;;5101425;28;20241;-60
2024/01/21 06:13:30;;;;;;;22.33;8.57;;;;;;;;;;5087269;28;20205;-59
2024/01/21 06:16:00;;;;;;;27.17;8.80;;;;;;;;;;5091573;28;20215;-59
2024/01/21 06:18:27;;;;;;;23.53;8.43;;;;;;;;;;5101556;28;20226;-59
2024/01/21 06:20:54;;;;;;;24.83;9.10;;;;;;;;;;5099577;28;20208;-59
2024/01/21 06:23:21;;;;;;;22.40;8.83;;;;;;;;;;5092016;28;20652;-59
2024/01/21 06:25:49;;;;;;;26.07;9.83;;;;;;;;;;5085775;28;20209;-59
2024/01/21 06:28:17;;;;;;;22.83;8.67;;;;;;;;;;5087926;28;20300;-59
2024/01/21 06:30:44;;;;;;;34.03;10.13;;;;;;;;;;5066194;28;20300;-59
2024/01/21 06:33:11;;;;;;;28.10;9.00;;;;;;;;;;5075685;28;20640;-59
2024/01/21 06:35:38;;;;;;;27.77;9.87;;;;;;;;;;5078947;28;20227;-59
2024/01/21 06:38:05;;;;;;;25.97;8.43;;;;;;;;;;5081861;28;20205;-59
2024/01/21 06:40:32;;;;;;;24.93;9.57;;;;;;;;;;5087272;28;20556;-60
2024/01/21 06:43:00;;;;;;;31.97;8.60;;;;;;;;;;5085984;28;20203;-59
2024/01/21 06:45:27;;;;;;;27.03;9.83;;;;;;;;;;5099862;28;20206;-59
2024/01/21 06:47:54;;;;;;;34.07;10.13;;;;;;;;;;5086765;28;20213;-59
2024/01/21 06:50:22;;;;;;;30.47;9.60;;;;;;;;;;5082700;28;20198;-59
2024/01/21 06:52:49;;;;;;;26.07;9.67;;;;;;;;;;5080123;28;20268;-59
2024/01/21 06:55:17;;;;;;;38.03;11.47;;;;;;;;;;5096774;28;20224;-58
2024/01/21 06:57:44;;;;;;;26.97;9.07;;;;;;;;;;5106864;28;20336;-59
2024/01/21 07:00:14;;;;;;;34.63;11.77;;;;;;;;;;5093483;28;20201;-59
2024/01/21 07:02:41;;;;;;;28.33;9.57;;;;;;;;;;5079408;28;20235;-61
2024/01/21 07:05:09;;;;;;;28.43;9.67;;;;;;;;;;5089477;28;20682;-59
2024/01/21 07:07:36;;;;;;;37.80;11.33;;;;;;;;;;5086714;28;20524;-59
2024/01/21 07:10:03;;;;;;;33.60;10.43;;;;;;;;;;5089294;28;20294;-59
2024/01/21 07:12:30;;;;;;;29.30;9.57;;;;;;;;;;5090853;28;20227;-59
2024/01/21 07:14:57;;;;;;;33.60;10.77;;;;;;;;;;5086738;28;20213;-59
2024/01/21 07:17:26;;;;;;;28.20;9.00;;;;;;;;;;5085734;28;20207;-60
2024/01/21 07:19:53;;;;;;;33.07;10.57;;;;;;;;;;5086207;28;20212;-60
2024/01/21 07:22:21;;;;;;;30.97;10.10;;;;;;;;;;5072533;28;20223;-60
2024/01/21 07:24:48;;;;;;;43.33;11.93;;;;;;;;;;5086492;28;20228;-60
2024/01/21 07:27:15;;;;;;;31.57;10.43;;;;;;;;;;5071323;28;20573;-60
2024/01/21 07:29:42;;;;;;;37.53;10.57;;;;;;;;;;5085789;28;20524;-60
2024/01/21 07:32:09;;;;;;;37.27;12.00;;;;;;;;;;5078800;28;20234;-60
2024/01/21 07:34:38;;;;;;;40.17;10.70;;;;;;;;;;5090474;28;20213;-58
2024/01/21 07:37:05;;;;;;;37.10;10.60;;;;;;;;;;5090356;28;20208;-61
2024/01/21 07:39:32;;;;;;;40.27;10.63;;;;;;;;;;5090105;28;20201;-59
2024/01/21 07:41:59;;;;;;;35.57;10.43;;;;;;;;;;5090172;28;20196;-59
2024/01/21 07:44:26;;;;;;;38.17;11.90;;;;;;;;;;5090016;28;20212;-59
2024/01/21 07:46:53;;;;;;;33.00;10.17;;;;;;;;;;5087652;28;20213;-60
2024/01/21 07:49:20;;;;;;;42.33;12.50;;;;;;;;;;5082563;28;20212;-60
2024/01/21 07:51:48;;;;;;;49.67;14.37;;;;;;;;;;5089839;28;20224;-60
2024/01/21 07:54:15;;;;;;;33.47;10.63;;;;;;;;;;5087758;28;20741;-61
2024/01/21 07:56:42;;;;;;;40.00;13.30;;;;;;;;;;5088824;28;20293;-60
2024/01/21 07:59:09;;;;;;;32.70;11.90;;;;;;;;;;5088831;28;20218;-60
2024/01/21 08:01:36;;;;;;;45.77;13.43;;;;;;;;;;5089549;28;20208;-60
2024/01/21 08:04:03;;;;;;;45.73;14.20;;;;;;;;;;5091650;28;20858;-60
2024/01/21 08:06:30;;;;;;;47.00;13.73;;;;;;;;;;5089370;28;20215;-60
2024/01/21 08:08:59;;;;;;;45.17;13.47;;;;;;;;;;5090026;28;20604;-60
2024/01/21 08:11:26;;;;;;;48.90;13.97;;;;;;;;;;5086329;28;20211;-60
2024/01/21 08:13:53;;;;;;;42.87;13.83;;;;;;;;;;5089315;28;20225;-59
2024/01/21 08:16:20;;;;;;;40.83;13.57;;;;;;;;;;5089807;28;20301;-61
2024/01/21 08:18:47;;;;;;;41.60;13.53;;;;;;;;;;5089566;28;20276;-59
2024/01/21 08:21:14;;;;;;;42.03;13.33;;;;;;;;;;5089772;28;20671;-60
2024/01/21 08:23:41;;;;;;;39.80;12.70;;;;;;;;;;5069412;28;20215;-62
2024/01/21 08:26:10;;;;;;;49.83;15.00;;;;;;;;;;5077809;28;20213;-64
2024/01/21 08:28:38;;;;;;;53.50;16.23;;;;;;;;;;5073011;28;20194;-64
2024/01/21 08:31:05;;;;;;;53.80;15.80;;;;;;;;;;5088640;28;20216;-64
2024/01/21 08:33:35;;;;;;;49.83;14.80;;;;;;;;;;5088630;28;20222;-64
2024/01/21 08:36:02;;;;;;;47.17;15.73;;;;;;;;;;5089112;28;20226;-62
2024/01/21 08:38:29;;;;;;;59.27;14.67;;;;;;;;;;5087399;28;20229;-62
2024/01/21 08:40:58;;;;;;;50.13;12.50;;;;;;;;;;5088669;28;20612;-64
2024/01/21 08:43:26;;;;;;;54.40;14.90;;;;;;;;;;5087635;28;20255;-63
2024/01/21 08:45:53;;;;;;;58.53;16.07;;;;;;;;;;5088906;28;20217;-64
2024/01/21 08:48:20;;;;;;;44.03;15.17;;;;;;;;;;5086648;28;20648;-64
2024/01/21 08:50:48;;;;;;;42.07;14.13;;;;;;;;;;5087644;28;20747;-64
2024/01/21 08:53:15;;;;;;;40.73;13.73;;;;;;;;;;5088158;28;20329;-64
2024/01/21 08:55:42;;;;;;;144.67;37.47;;;;;;;;;;5087483;28;20311;-64
2024/01/21 08:58:09;;;;;;;62.10;18.50;;;;;;;;;;5087413;28;20233;-64
2024/01/21 09:00:38;;;;;;;106.27;28.53;;;;;;;;;;5088239;28;20654;-64
2024/01/21 09:03:06;;;;;;;59.50;16.80;;;;;;;;;;5087470;28;20233;-64
2024/01/21 09:05:33;;;;;;;42.40;14.70;;;;;;;;;;5088457;28;20275;-64
2024/01/21 09:08:00;;;;;;;51.40;15.23;;;;;;;;;;5088341;28;20695;-64
2024/01/21 09:10:27;;;;;;;51.50;17.13;;;;;;;;;;5078360;28;20296;-64
2024/01/21 09:12:54;;;;;;;47.40;16.27;;;;;;;;;;5076842;28;20243;-64
2024/01/21 09:15:21;;;;;;;43.67;14.63;;;;;;;;;;5068327;28;20214;-64
2024/01/21 09:17:50;;;;;;;39.13;14.43;;;;;;;;;;5084151;28;20899;-64
2024/01/21 09:20:17;;;;;;;45.27;13.90;;;;;;;;;;5069970;28;20222;-64
2024/01/21 09:22:45;;;;;;;36.37;11.77;;;;;;;;;;5081695;28;20206;-64
2024/01/21 09:25:12;;;;;;;42.37;15.33;;;;;;;;;;5088009;28;20305;-64
2024/01/21 09:27:39;;;;;;;38.47;13.60;;;;;;;;;;5088226;28;20672;-64
2024/01/21 09:30:07;;;;;;;33.17;10.70;;;;;;;;;;5087962;28;20202;-64
2024/01/21 09:32:34;;;;;;;34.63;12.27;;;;;;;;;;5087346;28;20234;-64
2024/01/21 09:35:02;;;;;;;32.17;11.13;;;;;;;;;;5087477;28;21042;-64
2024/01/21 09:37:29;;;;;;;36.50;12.57;;;;;;;;;;5088319;28;20209;-64
2024/01/21 09:39:56;;;;;;;36.97;13.67;;;;;;;;;;5086912;28;20672;-64
2024/01/21 09:42:23;;;;;;;41.67;11.97;;;;;;;;;;5087474;28;20202;-64
2024/01/21 09:44:50;;;;;;;37.53;13.73;;;;;;;;;;5086316;28;20214;-64
2024/01/21 09:47:18;;;;;;;40.17;13.53;;;;;;;;;;5087906;28;20670;-64
2024/01/21 09:49:45;;;;;;;37.00;12.83;;;;;;;;;;5087751;28;20211;-64
2024/01/21 09:52:14;;;;;;;34.97;13.47;;;;;;;;;;5086912;28;20804;-64
2024/01/21 09:54:42;;;;;;;47.97;15.20;;;;;;;;;;5084448;28;20206;-64
2024/01/21 09:57:09;;;;;;;39.77;13.63;;;;;;;;;;5087782;28;20271;-64
2024/01/21 09:59:36;;;;;;;45.90;15.43;;;;;;;;;;5070503;28;20208;-60
2024/01/21 10:02:04;;;;;;;41.77;14.67;;;;;;;;;;5084121;28;20632;-61
2024/01/21 10:04:34;;;;;;;47.67;16.90;;;;;;;;;;5086231;28;20647;-60
2024/01/21 10:07:01;;;;;;;40.30;14.73;;;;;;;;;;5087276;28;20386;-61
2024/01/21 10:09:30;;;;;;;33.40;13.73;;;;;;;;;;5077335;28;20318;-59
2024/01/21 10:11:59;;;;;;;41.73;13.53;;;;;;;;;;5086279;28;20659;-59
2024/01/21 10:14:26;;;;;;;39.73;14.67;;;;;;;;;;5084971;28;20215;-60
2024/01/21 10:16:53;;;;;;;37.17;12.57;;;;;;;;;;5083832;28;20909;-60
2024/01/21 10:19:26;;;;;;;34.40;13.50;;;;;;;;;;5087917;28;20218;-60
2024/01/21 10:21:53;;;;;;;37.67;13.23;;;;;;;;;;5079446;28;20687;-59
2024/01/21 10:24:21;;;;;;;36.80;14.30;;;;;;;;;;5085771;28;20206;-59
2024/01/21 10:26:49;;;;;;;40.77;14.70;;;;;;;;;;5087500;28;20207;-60
2024/01/21 10:29:17;;;;;;;51.07;14.23;;;;;;;;;;5085696;28;20290;-60
2024/01/21 10:31:44;;;;;;;42.57;14.47;;;;;;;;;;5087321;28;20253;-60
2024/01/21 10:34:11;;;;;;;39.03;14.83;;;;;;;;;;5087537;28;20239;-61
2024/01/21 10:36:38;;;;;;;43.33;14.43;;;;;;;;;;5087324;28;20651;-60
2024/01/21 10:39:06;;;;;;;35.37;14.33;;;;;;;;;;5087569;28;20215;-60
2024/01/21 10:41:34;;;;;;;45.60;14.47;;;;;;;;;;5086846;28;20235;-60
2024/01/21 10:44:03;;;;;;;39.97;15.50;;;;;;;;;;5072475;28;20801;-60
2024/01/21 10:46:32;;;;;;;40.23;14.23;;;;;;;;;;5087059;28;20209;-60
2024/01/21 10:48:59;;;;;;;39.13;14.17;;;;;;;;;;5083306;28;20670;-60
2024/01/21 10:51:26;;;;;;;29.00;10.90;;;;;;;;;;5087024;28;20635;-60
2024/01/21 10:53:54;;;;;;;38.80;13.47;;;;;;;;;;5082678;28;20349;-59
2024/01/21 10:56:23;;;;;;;47.37;15.30;;;;;;;;;;5083968;28;20212;-59
2024/01/21 10:58:50;;;;;;;45.80;14.37;;;;;;;;;;5086152;28;20281;-59
2024/01/21 11:01:20;;;;;;;38.13;13.30;;;;;;;;;;5086563;28;20619;-59
2024/01/21 11:03:48;;;;;;;44.63;14.80;;;;;;;;;;5086769;28;20214;-59
2024/01/21 11:06:16;;;;;;;37.20;13.27;;;;;;;;;;5086557;28;20238;-59
2024/01/21 11:08:43;;;;;;;40.27;13.63;;;;;;;;;;5085772;28;20338;-59
2024/01/21 11:11:20;;;;;;;41.60;13.70;;;;;;;;;;5085752;28;20219;-59
2024/01/21 11:13:47;;;;;;;39.50;13.60;;;;;;;;;;5086972;28;20280;-59
2024/01/21 11:16:34;;;;;;;42.00;15.37;;;;;;;;;;5086598;28;20523;-59
2024/01/21 11:19:06;;;;;;;42.37;13.80;;;;;;;;;;5086204;28;20656;-59
2024/01/21 11:21:33;;;;;;;49.40;16.57;;;;;;;;;;5085642;28;20294;-59
2024/01/21 11:24:00;;;;;;;47.77;16.80;;;;;;;;;;5086531;28;20261;-59
2024/01/21 11:26:30;;;;;;;48.43;16.73;;;;;;;;;;5086424;28;20713;-59
2024/01/21 11:28:59;;;;;;;43.40;15.60;;;;;;;;;;5066007;28;20209;-59
2024/01/21 11:31:26;;;;;;;50.83;17.17;;;;;;;;;;5075533;28;20695;-59
2024/01/21 11:34:04;;;;;;;42.53;15.97;;;;;;;;;;5082320;28;20909;-59
2024/01/21 11:36:32;;;;;;;44.17;15.27;;;;;;;;;;5066713;28;20299;-59
2024/01/21 11:38:59;;;;;;;39.17;15.47;;;;;;;;;;5076398;28;20237;-59
2024/01/21 11:41:31;;;;;;;45.80;15.20;;;;;;;;;;5085669;28;20224;-59
2024/01/21 11:44:08;;;;;;;40.80;15.87;;;;;;;;;;5085869;28;20220;-59
2024/01/21 11:46:36;;;;;;;45.53;16.07;;;;;;;;;;5079792;28;20707;-59
2024/01/21 11:49:05;;;;;;;38.50;15.47;;;;;;;;;;5085970;28;20299;-59
2024/01/21 11:51:32;;;;;;;39.70;15.90;;;;;;;;;;5085417;28;20242;-59
2024/01/21 11:53:59;;;;;;;49.83;17.50;;;;;;;;;;5085657;28;20738;-59
2024/01/21 11:56:26;;;;;;;44.27;15.87;;;;;;;;;;5075923;28;20240;-59
2024/01/21 11:58:53;;;;;;;50.93;18.00;;;;;;;;;;5086334;28;20231;-60
2024/01/21 12:01:21;;;;;;;42.53;16.10;;;;;;;;;;5086690;28;20213;-60
2024/01/21 12:03:48;;;;;;;48.37;17.87;;;;;;;;;;5086339;28;20680;-61
2024/01/21 12:06:18;;;;;;;50.77;19.43;;;;;;;;;;5086299;28;20218;-61
2024/01/21 12:08:45;;;;;;;40.43;16.87;;;;;;;;;;5086465;28;20235;-60
2024/01/21 12:11:13;;;;;;;44.73;17.63;;;;;;;;;;5085712;28;20211;-64
2024/01/21 12:13:40;;;;;;;39.97;14.97;;;;;;;;;;5086690;28;20231;-64
2024/01/21 12:16:08;;;;;;;37.67;15.97;;;;;;;;;;5086079;28;20257;-63
2024/01/21 12:18:38;;;;;;;34.17;15.07;;;;;;;;;;5088149;28;20206;-61
2024/01/21 12:21:05;;;;;;;42.00;16.73;;;;;;;;;;5090108;28;20215;-60
2024/01/21 12:23:35;;;;;;;42.13;17.27;;;;;;;;;;5090298;28;20229;-61
2024/01/21 12:26:02;;;;;;;39.63;17.07;;;;;;;;;;5088675;28;20221;-61
2024/01/21 12:28:30;;;;;;;39.90;15.53;;;;;;;;;;5089905;28;20205;-58
2024/01/21 12:30:57;;;;;;;38.27;16.33;;;;;;;;;;5089642;28;20245;-59
2024/01/21 12:33:24;;;;;;;47.73;20.07;;;;;;;;;;5089218;28;20228;-58
2024/01/21 12:35:51;;;;;;;39.00;16.73;;;;;;;;;;5089049;28;20202;-58
2024/01/21 12:38:18;;;;;;;36.20;15.17;;;;;;;;;;5089004;28;20684;-65
2024/01/21 12:40:47;;;;;;;50.43;19.70;;;;;;;;;;5089329;28;20318;-59
2024/01/21 12:43:16;;;;;;;59.97;24.80;;;;;;;;;;5088546;28;20207;-61
2024/01/21 12:45:44;;;;;;;57.90;22.93;;;;;;;;;;5089369;28;20236;-59
2024/01/21 12:48:11;;;;;;;39.53;16.47;;;;;;;;;;5089507;28;20246;-58
2024/01/21 12:50:41;;;;;;;41.43;18.63;;;;;;;;;;5087300;28;20343;-59
2024/01/21 12:53:08;;;;;;;36.17;16.30;;;;;;;;;;5089193;28;20272;-59
2024/01/21 12:55:35;;;;;;;41.27;18.00;;;;;;;;;;5087110;28;20295;-58
2024/01/21 12:58:04;;;;;;;39.27;16.07;;;;;;;;;;5080541;28;20229;-59
2024/01/21 13:00:31;;;;;;;34.90;15.87;;;;;;;;;;5087676;28;20318;-58
2024/01/21 13:02:58;;;;;;;36.27;16.37;;;;;;;;;;5086573;28;20208;-59
2024/01/21 13:05:25;;;;;;;43.90;18.13;;;;;;;;;;5088353;28;20213;-59
2024/01/21 13:07:53;;;;;;;37.37;15.90;;;;;;;;;;5088672;28;20199;-59
2024/01/21 13:10:20;;;;;;;51.40;21.47;;;;;;;;;;5088236;28;20239;-60
2024/01/21 13:12:47;;;;;;;49.77;18.57;;;;;;;;;;5087130;28;20211;-59
2024/01/21 13:15:16;;;;;;;29.33;15.10;;;;;;;;;;5088620;28;20217;-60
2024/01/21 13:17:43;;;;;;;35.90;15.83;;;;;;;;;;5088114;28;20794;-59
2024/01/21 13:20:10;;;;;;;36.20;14.23;;;;;;;;;;5087987;28;20206;-59
2024/01/21 13:22:37;;;;;;;29.87;14.37;;;;;;;;;;5087975;28;20308;-58
2024/01/21 13:25:05;;;;;;;32.70;15.37;;;;;;;;;;5088569;28;20248;-59
2024/01/21 13:27:42;;;;;;;29.00;14.20;;;;;;;;;;5088321;28;20213;-62
2024/01/21 13:32:55;;;;;;;33.03;14.43;;;;;;;;;;5087468;28;20285;-60
2024/01/21 13:35:23;;;;;;;37.87;15.40;;;;;;;;;;5070247;28;20210;-61
2024/01/21 13:37:50;;;;;;;32.07;14.97;;;;;;;;;;5086014;28;20592;-60
2024/01/21 13:40:17;;;;;;;29.30;14.30;;;;;;;;;;5087849;28;20333;-60
2024/01/21 13:42:45;;;;;;;33.93;14.73;;;;;;;;;;5088087;28;20637;-60
2024/01/21 13:45:12;;;;;;;28.23;14.23;;;;;;;;;;5087727;28;20659;-60
2024/01/21 13:47:39;;;;;;;30.40;14.10;;;;;;;;;;5085221;28;20208;-60
2024/01/21 13:50:08;;;;;;;27.87;14.37;;;;;;;;;;5087172;28;20221;-60
2024/01/21 13:52:35;;;;;;;30.47;14.90;;;;;;;;;;5085772;28;20302;-60
2024/01/21 13:55:05;;;;;;;31.40;14.87;;;;;;;;;;5079373;28;20753;-59
2024/01/21 13:57:32;;;;;;;28.90;14.37;;;;;;;;;;5087399;28;20225;-60
2024/01/21 13:59:59;;;;;;;29.73;14.60;;;;;;;;;;5084606;28;20229;-60
2024/01/21 14:02:26;;;;;;;28.60;13.97;;;;;;;;;;5087781;28;20264;-60
2024/01/21 14:04:53;;;;;;;28.50;14.17;;;;;;;;;;5087133;28;20710;-60
2024/01/21 14:07:22;;;;;;;29.93;14.17;;;;;;;;;;5087080;28;20209;-60
2024/01/21 14:09:49;;;;;;;30.63;14.80;;;;;;;;;;5087462;28;20260;-61
2024/01/21 14:12:16;;;;;;;28.70;14.20;;;;;;;;;;5087850;28;20224;-61
2024/01/21 14:14:44;;;;;;;30.80;14.90;;;;;;;;;;5087280;28;20231;-60
2024/01/21 14:17:12;;;;;;;30.00;14.47;;;;;;;;;;5087479;28;20824;-60
2024/01/21 14:19:41;;;;;;;26.67;13.73;;;;;;;;;;5087130;28;20233;-61
2024/01/21 14:22:09;;;;;;;31.33;16.20;;;;;;;;;;5087658;28;20213;-60
2024/01/21 14:24:43;;;;;;;28.77;14.77;;;;;;;;;;5087444;28;20300;-60